createdAt,value
2022-12-12T00:00:42.454Z,23.47
2022-12-12T00:03:09.419Z,21.93
2022-12-12T00:05:36.742Z,21.77
2022-12-12T00:08:03.695Z,22.10
2022-12-12T00:10:30.608Z,20.80
2022-12-12T00:12:57.560Z,21.87
2022-12-12T00:15:24.494Z,20.53
2022-12-12T00:17:51.349Z,21.13
2022-12-12T00:20:18.141Z,21.53
2022-12-12T00:22:44.982Z,22.03
2022-12-12T00:25:12.303Z,20.57
2022-12-12T00:27:39.428Z,20.40
2022-12-12T00:30:07.492Z,20.50
2022-12-12T00:32:34.416Z,20.77
2022-12-12T00:35:01.223Z,21.13
2022-12-12T00:37:28.033Z,22.03
2022-12-12T00:39:55.017Z,19.83
2022-12-12T00:42:21.819Z,20.70
2022-12-12T00:44:48.621Z,22.60
2022-12-12T00:47:15.437Z,20.13
2022-12-12T00:49:42.231Z,23.07
2022-12-12T00:52:09.090Z,22.67
2022-12-12T00:54:35.964Z,20.37
2022-12-12T00:57:02.989Z,20.03
2022-12-12T00:59:29.867Z,21.73
2022-12-12T01:01:56.708Z,20.40
2022-12-12T01:04:23.864Z,21.00
2022-12-12T01:06:50.735Z,20.80
2022-12-12T01:09:17.533Z,25.97
2022-12-12T01:11:44.641Z,21.23
2022-12-12T01:14:11.489Z,23.83
2022-12-12T01:16:38.406Z,21.73
2022-12-12T01:19:05.277Z,23.23
2022-12-12T01:21:32.291Z,21.47
2022-12-12T01:23:59.129Z,24.83
2022-12-12T01:26:26.075Z,21.50
2022-12-12T01:28:53.327Z,25.80
2022-12-12T01:31:21.159Z,22.07
2022-12-12T01:33:48.672Z,24.00
2022-12-12T01:36:19.165Z,22.50
2022-12-12T01:38:47.907Z,22.37
2022-12-12T01:41:16.610Z,21.97
2022-12-12T01:43:43.839Z,21.00
2022-12-12T01:46:22.543Z,23.93
2022-12-12T01:48:56.583Z,23.83
2022-12-12T01:51:26.583Z,22.93
2022-12-12T01:54:01.801Z,21.20
2022-12-12T01:56:29.074Z,23.60
2022-12-12T01:58:56.794Z,20.77
2022-12-12T02:01:24.099Z,22.67
2022-12-12T02:03:51.115Z,23.33
2022-12-12T02:06:23.796Z,20.83
2022-12-12T02:08:54.734Z,21.67
2022-12-12T02:11:21.610Z,21.60
2022-12-12T02:13:49.278Z,21.30
2022-12-12T02:16:45.237Z,21.30
2022-12-12T02:19:30.548Z,21.47
2022-12-12T02:22:32.546Z,23.30
2022-12-12T02:25:23.136Z,23.47
2022-12-12T02:28:21.760Z,22.57
2022-12-12T02:31:22.318Z,23.23
2022-12-12T02:34:14.048Z,22.87
2022-12-12T02:37:04.424Z,22.50
2022-12-12T02:39:37.235Z,23.57
2022-12-12T02:42:13.171Z,20.17
2022-12-12T02:44:54.904Z,23.30
2022-12-12T02:47:29.051Z,25.13
2022-12-12T02:50:15.651Z,22.27
2022-12-12T02:52:48.249Z,23.90
2022-12-12T02:55:16.667Z,24.90
2022-12-12T02:57:43.588Z,23.80
2022-12-12T03:00:14.959Z,24.40
2022-12-12T03:03:22.453Z,23.93
2022-12-12T03:06:51.493Z,22.37
2022-12-12T03:09:45.641Z,25.10
2022-12-12T03:12:31.750Z,23.43
2022-12-12T03:15:25.085Z,22.33
2022-12-12T03:17:58.411Z,23.13
2022-12-12T03:20:37.361Z,22.97
2022-12-12T03:23:18.356Z,23.93
2022-12-12T03:26:00.233Z,24.67
2022-12-12T03:28:35.781Z,21.67
2022-12-12T03:31:08.665Z,21.67
2022-12-12T03:33:57.859Z,25.73
2022-12-12T03:36:27.806Z,23.23
2022-12-12T03:39:00.737Z,22.60
2022-12-12T03:41:50.423Z,25.47
2022-12-12T03:44:21.840Z,23.63
2022-12-12T03:47:25.866Z,23.23
2022-12-12T03:50:05.459Z,23.50
2022-12-12T03:52:49.564Z,20.07
2022-12-12T03:56:05.613Z,20.70
2022-12-12T03:58:45.459Z,23.67
2022-12-12T04:01:13.647Z,24.23
2022-12-12T04:04:25.268Z,24.50
2022-12-12T04:06:59.865Z,24.47
2022-12-12T04:09:45.398Z,21.77
2022-12-12T04:12:43.748Z,24.30
2022-12-12T04:15:35.599Z,23.30
2022-12-12T04:18:36.192Z,24.13
2022-12-12T04:21:52.614Z,22.87
2022-12-12T04:24:43.676Z,23.70
2022-12-12T04:27:35.664Z,22.63
2022-12-12T04:30:14.203Z,22.77
2022-12-12T04:33:11.852Z,24.87
2022-12-12T04:35:45.843Z,24.37
2022-12-12T04:38:24.088Z,24.73
2022-12-12T04:40:57.688Z,26.93
2022-12-12T04:43:35.690Z,27.77
2022-12-12T04:46:07.870Z,26.97
2022-12-12T04:48:50.737Z,25.07
2022-12-12T04:51:30.255Z,24.80
2022-12-12T04:54:08.891Z,24.93
2022-12-12T04:56:38.425Z,23.37
2022-12-12T04:59:07.649Z,26.57
2022-12-12T05:01:53.122Z,21.57
2022-12-12T05:04:31.426Z,22.73
2022-12-12T05:07:07.852Z,25.13
2022-12-12T05:09:35.988Z,26.57
2022-12-12T05:12:02.948Z,24.77
2022-12-12T05:14:31.379Z,22.93
2022-12-12T05:17:06.855Z,22.73
2022-12-12T05:19:33.730Z,22.50
2022-12-12T05:22:00.496Z,27.73
2022-12-12T05:24:31.161Z,27.53
2022-12-12T05:26:59.352Z,21.83
2022-12-12T05:29:26.252Z,26.03
2022-12-12T05:31:53.089Z,23.53
2022-12-12T05:34:19.988Z,24.73
2022-12-12T05:36:47.813Z,26.70
2022-12-12T05:39:14.745Z,24.93
2022-12-12T05:41:41.630Z,26.43
2022-12-12T05:44:08.679Z,23.20
2022-12-12T05:46:35.480Z,27.30
2022-12-12T05:49:02.377Z,29.07
2022-12-12T05:51:29.160Z,24.40
2022-12-12T05:53:56.549Z,24.87
2022-12-12T05:56:23.310Z,24.90
2022-12-12T05:58:50.156Z,26.70
2022-12-12T06:01:17.005Z,27.50
2022-12-12T06:03:43.883Z,22.93
2022-12-12T06:06:10.791Z,28.43
2022-12-12T06:08:37.701Z,25.80
2022-12-12T06:11:07.433Z,24.20
2022-12-12T06:13:34.653Z,25.90
2022-12-12T06:16:08.299Z,26.63
2022-12-12T06:18:35.658Z,24.20
2022-12-12T06:21:09.302Z,22.80
2022-12-12T06:23:41.139Z,24.27
2022-12-12T06:26:10.295Z,22.47
2022-12-12T06:28:38.335Z,24.80
2022-12-12T06:31:11.336Z,25.20
2022-12-12T06:33:39.859Z,24.63
2022-12-12T06:36:14.662Z,25.83
2022-12-12T06:38:41.700Z,23.70
2022-12-12T06:41:13.934Z,26.00
2022-12-12T06:43:41.369Z,21.70
2022-12-12T06:46:16.911Z,24.07
2022-12-12T06:48:44.248Z,26.40
2022-12-12T06:51:15.330Z,23.17
2022-12-12T06:53:42.153Z,25.13
2022-12-12T06:56:12.734Z,25.87
2022-12-12T06:58:39.629Z,25.43
2022-12-12T07:01:07.153Z,23.53
2022-12-12T07:03:34.496Z,21.83
2022-12-12T07:06:01.715Z,23.37
2022-12-12T07:08:28.823Z,24.00
2022-12-12T07:10:56.859Z,23.27
2022-12-12T07:13:23.716Z,20.33
2022-12-12T07:15:51.034Z,24.53
2022-12-12T07:18:19.053Z,21.50
2022-12-12T07:20:47.180Z,21.90
2022-12-12T07:23:15.059Z,22.80
2022-12-12T07:25:44.639Z,22.17
2022-12-12T07:28:13.752Z,20.50
2022-12-12T07:30:47.200Z,23.40
2022-12-12T07:33:20.049Z,22.77
2022-12-12T07:35:46.939Z,20.77
2022-12-12T07:38:13.821Z,21.53
2022-12-12T07:40:40.828Z,20.03
2022-12-12T07:43:07.726Z,21.47
2022-12-12T07:45:34.564Z,17.70
2022-12-12T07:48:01.694Z,18.57
2022-12-12T07:50:28.613Z,19.33
2022-12-12T07:52:55.475Z,15.77
2022-12-12T07:55:22.304Z,17.47
2022-12-12T07:57:49.930Z,16.87
2022-12-12T08:00:17.854Z,18.63
2022-12-12T08:02:44.855Z,18.33
2022-12-12T08:05:12.044Z,18.93
2022-12-12T08:07:39.388Z,18.03
2022-12-12T08:10:07.020Z,18.17
2022-12-12T08:12:33.880Z,16.63
2022-12-12T08:15:00.787Z,18.63
2022-12-12T08:17:27.643Z,19.40
2022-12-12T08:19:54.475Z,14.50
2022-12-12T08:22:21.285Z,18.43
2022-12-12T08:24:50.023Z,17.37
2022-12-12T08:27:16.936Z,16.33
2022-12-12T08:29:44.444Z,16.13
2022-12-12T08:32:11.242Z,17.43
2022-12-12T08:34:38.183Z,18.40
2022-12-12T08:37:05.290Z,16.53
2022-12-12T08:39:32.131Z,16.67
2022-12-12T08:42:00.114Z,16.97
2022-12-12T08:44:26.901Z,17.43
2022-12-12T08:46:53.802Z,15.17
2022-12-12T08:49:20.604Z,16.37
2022-12-12T08:51:47.450Z,17.43
2022-12-12T08:54:14.494Z,16.90
2022-12-12T08:56:41.716Z,16.77
2022-12-12T08:59:08.534Z,18.53
2022-12-12T09:01:35.544Z,17.17
2022-12-12T09:04:02.626Z,17.93
2022-12-12T09:06:29.812Z,19.77
2022-12-12T09:08:57.533Z,20.10
2022-12-12T09:11:25.428Z,17.60
2022-12-12T09:13:52.447Z,18.60
2022-12-12T09:16:20.397Z,18.37
2022-12-12T09:18:49.257Z,20.37
2022-12-12T09:21:17.520Z,15.37
2022-12-12T09:23:44.433Z,16.83
2022-12-12T09:26:11.736Z,15.50
2022-12-12T09:28:39.274Z,15.97
2022-12-12T09:31:11.634Z,16.50
2022-12-12T09:33:39.894Z,16.03
2022-12-12T09:36:09.428Z,14.40
2022-12-12T09:38:36.675Z,16.97
2022-12-12T09:41:09.295Z,15.50
2022-12-12T09:43:54.956Z,15.33
2022-12-12T09:46:43.447Z,15.77
2022-12-12T09:49:15.288Z,14.50
2022-12-12T09:51:49.251Z,15.97
2022-12-12T09:54:23.012Z,13.07
2022-12-12T09:57:01.657Z,14.03
2022-12-12T09:59:58.469Z,14.13
2022-12-12T10:03:12.914Z,13.40
2022-12-12T10:06:07.460Z,13.33
2022-12-12T10:08:46.508Z,12.37
2022-12-12T10:11:46.715Z,12.13
2022-12-12T10:14:16.279Z,13.33
2022-12-12T10:16:44.099Z,13.77
2022-12-12T10:19:25.607Z,14.00
2022-12-12T10:21:54.731Z,12.87
2022-12-12T10:24:37.425Z,13.00
2022-12-12T10:27:13.939Z,18.43
2022-12-12T10:29:48.748Z,16.27
2022-12-12T10:33:01.571Z,22.63
2022-12-12T10:35:52.593Z,20.93
2022-12-12T10:38:53.925Z,29.97
2022-12-12T10:41:38.141Z,20.90
2022-12-12T10:44:47.344Z,17.73
2022-12-12T10:47:14.679Z,25.10
2022-12-12T10:49:42.115Z,23.77
2022-12-12T10:52:20.076Z,20.90
2022-12-12T10:54:59.263Z,16.97
2022-12-12T10:57:35.144Z,20.30
2022-12-12T11:00:26.587Z,16.93
2022-12-12T11:03:00.144Z,14.57
2022-12-12T11:05:30.032Z,13.63
2022-12-12T11:08:10.152Z,13.53
2022-12-12T11:10:38.024Z,13.20
2022-12-12T11:13:10.884Z,14.73
2022-12-12T11:15:51.001Z,13.73
2022-12-12T11:18:22.419Z,12.53
2022-12-12T11:20:50.996Z,12.80
2022-12-12T11:23:25.459Z,12.10
2022-12-12T11:25:58.484Z,12.47
2022-12-12T11:28:31.434Z,13.87
2022-12-12T11:31:02.895Z,15.97
2022-12-12T11:33:48.352Z,13.07
2022-12-12T11:36:23.344Z,12.63
2022-12-12T11:38:56.981Z,12.63
2022-12-12T11:41:24.207Z,13.60
2022-12-12T11:43:50.907Z,13.27
2022-12-12T11:46:23.707Z,15.37
2022-12-12T11:48:53.505Z,14.17
2022-12-12T11:51:43.208Z,11.83
2022-12-12T11:54:34.439Z,14.13
2022-12-12T11:57:56.626Z,12.20
2022-12-12T12:00:38.410Z,12.10
2022-12-12T12:03:24.611Z,11.73
2022-12-12T12:06:34.380Z,12.93
2022-12-12T12:09:37.317Z,12.03
2022-12-12T12:12:15.479Z,16.70
2022-12-12T12:15:08.777Z,14.60
2022-12-12T12:18:08.991Z,15.03
2022-12-12T12:21:19.625Z,15.57
2022-12-12T12:24:16.035Z,13.30
2022-12-12T12:27:14.710Z,13.00
2022-12-12T12:30:18.336Z,14.17
2022-12-12T12:33:06.126Z,12.50
2022-12-12T12:35:49.994Z,16.40
2022-12-12T12:38:45.543Z,13.27
2022-12-12T12:41:31.268Z,13.43
2022-12-12T12:44:25.609Z,15.40
2022-12-12T12:47:25.163Z,12.30
2022-12-12T12:50:28.289Z,11.40
2022-12-12T12:53:08.394Z,11.87
2022-12-12T12:55:47.891Z,12.00
2022-12-12T12:58:29.315Z,10.77
2022-12-12T13:01:11.724Z,11.00
2022-12-12T13:03:50.472Z,12.23
2022-12-12T13:06:34.423Z,12.93
2022-12-12T13:09:29.929Z,14.03
2022-12-12T13:12:35.259Z,14.43
2022-12-12T13:15:31.313Z,12.23
2022-12-12T13:18:04.584Z,12.63
2022-12-12T13:20:38.186Z,12.00
2022-12-12T13:23:12.899Z,12.20
2022-12-12T13:26:01.573Z,12.27
2022-12-12T13:28:58.874Z,12.10
2022-12-12T13:31:48.180Z,11.30
2022-12-12T13:34:19.802Z,10.57
2022-12-12T13:36:50.421Z,11.43
2022-12-12T13:39:30.204Z,11.27
2022-12-12T13:42:05.617Z,11.60
2022-12-12T13:44:45.807Z,11.97
2022-12-12T13:47:24.709Z,12.17
2022-12-12T13:50:01.788Z,12.20
2022-12-12T13:52:42.233Z,13.40
2022-12-12T13:55:12.557Z,12.00
2022-12-12T13:57:57.131Z,12.03
2022-12-12T14:00:36.316Z,11.73
2022-12-12T14:03:12.435Z,10.73
2022-12-12T14:05:51.637Z,14.17
2022-12-12T14:08:31.819Z,10.87
2022-12-12T14:11:03.347Z,10.07
2022-12-12T14:13:38.766Z,12.27
2022-12-12T14:16:25.693Z,11.37
2022-12-12T14:18:52.521Z,11.13
2022-12-12T14:21:22.200Z,11.37
2022-12-12T14:23:51.917Z,11.07
2022-12-12T14:26:27.837Z,11.87
2022-12-12T14:29:16.323Z,11.77
2022-12-12T14:32:12.069Z,12.47
2022-12-12T14:35:25.197Z,11.43
2022-12-12T14:38:16.767Z,11.70
2022-12-12T14:40:48.261Z,13.43
2022-12-12T14:43:46.757Z,12.57
2022-12-12T14:46:42.176Z,13.17
2022-12-12T14:49:15.715Z,12.60
2022-12-12T14:51:44.350Z,12.53
2022-12-12T14:54:21.415Z,11.97
2022-12-12T14:56:55.538Z,13.47
2022-12-12T14:59:27.059Z,13.73
2022-12-12T15:02:14.693Z,13.50
2022-12-12T15:04:47.747Z,13.73
2022-12-12T15:07:38.170Z,17.03
2022-12-12T15:10:27.521Z,20.03
2022-12-12T15:12:54.548Z,16.73
2022-12-12T15:15:28.716Z,19.20
2022-12-12T15:17:59.160Z,14.83
2022-12-12T15:20:29.086Z,13.60
2022-12-12T15:23:07.254Z,13.50
2022-12-12T15:25:43.546Z,11.87
2022-12-12T15:28:21.577Z,13.60
2022-12-12T15:30:53.576Z,12.30
2022-12-12T15:33:26.771Z,16.47
2022-12-12T15:36:01.882Z,16.23
2022-12-12T15:38:30.040Z,14.50
2022-12-12T15:41:06.677Z,17.00
2022-12-12T15:43:37.310Z,15.77
2022-12-12T15:46:14.176Z,27.00
2022-12-12T15:48:49.688Z,20.87
2022-12-12T15:51:24.772Z,16.37
2022-12-12T15:53:53.547Z,17.70
2022-12-12T15:56:20.208Z,16.60
2022-12-12T15:59:04.010Z,15.67
2022-12-12T16:01:31.382Z,16.97
2022-12-12T16:04:07.100Z,17.57
2022-12-12T16:06:43.645Z,14.97
2022-12-12T16:09:10.390Z,16.97
2022-12-12T16:11:55.774Z,18.57
2022-12-12T16:14:40.845Z,15.33
2022-12-12T16:17:25.895Z,15.83
2022-12-12T16:20:05.052Z,17.20
2022-12-12T16:22:43.749Z,15.57
2022-12-12T16:25:22.107Z,15.47
2022-12-12T16:28:25.838Z,16.57
2022-12-12T16:31:03.813Z,16.87
2022-12-12T16:33:37.909Z,19.17
2022-12-12T16:36:14.591Z,21.20
2022-12-12T16:38:43.088Z,23.03
2022-12-12T16:41:17.733Z,22.67
2022-12-12T16:43:44.990Z,22.20
2022-12-12T16:46:29.944Z,21.77
2022-12-12T16:49:04.115Z,17.80
2022-12-12T16:51:35.189Z,17.67
2022-12-12T16:54:02.088Z,17.93
2022-12-12T16:56:29.099Z,16.97
2022-12-12T16:58:56.280Z,16.77
2022-12-12T17:01:23.458Z,16.50
2022-12-12T17:03:50.795Z,20.23
2022-12-12T17:06:17.668Z,20.77
2022-12-12T17:08:44.527Z,19.13
2022-12-12T17:11:12.687Z,19.60
2022-12-12T17:13:48.222Z,17.93
2022-12-12T17:16:15.646Z,20.23
2022-12-12T17:18:42.559Z,23.43
2022-12-12T17:21:09.745Z,23.13
2022-12-12T17:23:36.579Z,20.70
2022-12-12T17:26:05.086Z,20.03
2022-12-12T17:28:33.994Z,22.13
2022-12-12T17:31:02.025Z,46.63
2022-12-12T17:33:29.501Z,31.07
2022-12-12T17:36:06.177Z,47.90
2022-12-12T17:38:34.002Z,51.30
2022-12-12T17:41:08.981Z,26.43
2022-12-12T17:43:37.459Z,20.13
2022-12-12T17:46:14.056Z,49.73
2022-12-12T17:48:47.228Z,59.63
2022-12-12T17:51:19.682Z,53.80
2022-12-12T17:53:47.066Z,58.60
2022-12-12T17:56:17.789Z,30.47
2022-12-12T17:58:46.603Z,22.07
2022-12-12T18:01:23.987Z,28.23
2022-12-12T18:03:51.532Z,25.90
2022-12-12T18:06:20.710Z,30.70
2022-12-12T18:08:48.960Z,34.30
2022-12-12T18:11:19.804Z,50.67
2022-12-12T18:13:49.974Z,52.83
2022-12-12T18:16:18.258Z,27.90
2022-12-12T18:18:48.247Z,22.33
2022-12-12T18:21:51.287Z,22.10
2022-12-12T18:24:06.320Z,17.53
2022-12-12T18:26:33.318Z,17.93
2022-12-12T18:29:04.248Z,20.63
2022-12-12T18:31:31.673Z,21.00
2022-12-12T18:33:59.071Z,20.27
2022-12-12T18:36:29.199Z,22.70
2022-12-12T18:38:57.755Z,25.10
2022-12-12T18:41:26.411Z,26.70
2022-12-12T18:43:54.923Z,25.20
2022-12-12T18:46:24.685Z,24.73
2022-12-12T18:48:51.697Z,23.70
2022-12-12T18:51:23.301Z,23.60
2022-12-12T18:53:53.352Z,22.80
2022-12-12T18:56:28.927Z,28.47
2022-12-12T18:58:58.846Z,36.73
2022-12-12T19:01:33.367Z,37.33
2022-12-12T19:04:07.314Z,47.27
2022-12-12T19:06:37.703Z,39.10
2022-12-12T19:09:12.539Z,41.10
2022-12-12T19:11:39.544Z,59.90
2022-12-12T19:14:08.324Z,34.90
2022-12-12T19:16:35.440Z,26.50
2022-12-12T19:19:05.109Z,26.07
2022-12-12T19:21:33.807Z,27.73
2022-12-12T19:24:02.887Z,25.93
2022-12-12T19:26:30.960Z,22.90
2022-12-12T19:29:05.760Z,25.67
2022-12-12T19:31:34.510Z,22.43
2022-12-12T19:34:05.119Z,23.70
2022-12-12T19:36:32.883Z,27.00
2022-12-12T19:39:01.000Z,26.47
2022-12-12T19:41:28.499Z,23.00
2022-12-12T19:43:58.120Z,23.03
2022-12-12T19:46:28.299Z,23.37
2022-12-12T19:48:57.845Z,24.60
2022-12-12T19:51:28.488Z,27.90
2022-12-12T19:53:59.388Z,24.87
2022-12-12T19:56:30.331Z,28.73
2022-12-12T19:58:58.308Z,23.33
2022-12-12T20:01:28.956Z,24.70
2022-12-12T20:04:05.766Z,29.58
2022-12-12T20:06:41.055Z,28.40
2022-12-12T20:09:09.332Z,25.20
2022-12-12T20:11:37.518Z,26.47
2022-12-12T20:14:05.093Z,24.77
2022-12-12T20:16:31.927Z,27.40
2022-12-12T20:18:59.588Z,29.83
2022-12-12T20:22:00.468Z,27.17
2022-12-12T20:24:18.235Z,23.80
2022-12-12T20:26:45.912Z,22.77
2022-12-12T20:29:14.708Z,23.13
2022-12-12T20:31:45.285Z,21.43
2022-12-12T20:34:14.572Z,25.80
2022-12-12T20:36:42.301Z,29.73
2022-12-12T20:39:16.022Z,34.70
2022-12-12T20:41:44.137Z,27.47
2022-12-12T20:44:12.703Z,27.23
2022-12-12T20:46:42.576Z,26.63
2022-12-12T20:49:13.643Z,28.10
2022-12-12T20:51:57.652Z,27.70
2022-12-12T20:54:28.433Z,26.97
2022-12-12T20:56:56.355Z,27.07
2022-12-12T20:59:24.819Z,26.53
2022-12-12T21:01:52.299Z,28.43
2022-12-12T21:04:19.561Z,28.10
2022-12-12T21:06:48.727Z,27.88
2022-12-12T21:09:22.690Z,30.20
2022-12-12T21:11:51.847Z,27.25
2022-12-12T21:14:19.349Z,26.60
2022-12-12T21:16:47.139Z,25.57
2022-12-12T21:19:14.949Z,30.08
2022-12-12T21:21:44.111Z,24.52
2022-12-12T21:24:17.676Z,27.80
2022-12-12T21:26:45.587Z,26.40
2022-12-12T21:29:12.788Z,27.92
2022-12-12T21:31:48.296Z,25.83
2022-12-12T21:34:18.545Z,25.52
2022-12-12T21:36:45.392Z,27.45
2022-12-12T21:39:13.404Z,31.98
2022-12-12T21:41:43.663Z,27.20
2022-12-12T21:44:10.894Z,22.15
2022-12-12T21:46:41.866Z,29.55
2022-12-12T21:49:27.621Z,28.90
2022-12-12T21:52:10.005Z,27.27
2022-12-12T21:54:36.927Z,25.20
2022-12-12T21:57:03.944Z,24.23
2022-12-12T21:59:30.796Z,23.17
2022-12-12T22:02:00.118Z,22.67
2022-12-12T22:04:27.883Z,23.80
2022-12-12T22:06:56.981Z,22.20
2022-12-12T22:09:24.197Z,28.13
2022-12-12T22:11:52.490Z,22.80
2022-12-12T22:14:30.531Z,25.53
2022-12-12T22:16:57.436Z,21.63
2022-12-12T22:19:24.207Z,29.63
2022-12-12T22:21:51.027Z,26.87
2022-12-12T22:24:17.957Z,28.47
2022-12-12T22:26:50.395Z,26.93
2022-12-12T22:29:19.295Z,29.77
2022-12-12T22:31:49.770Z,25.20
2022-12-12T22:34:24.768Z,24.07
2022-12-12T22:36:52.589Z,18.77
2022-12-12T22:39:26.977Z,22.53
2022-12-12T22:41:54.807Z,22.23
2022-12-12T22:44:24.039Z,23.47
2022-12-12T22:46:53.463Z,20.83
2022-12-12T22:49:25.694Z,21.48
2022-12-12T22:51:55.177Z,23.25
2022-12-12T22:54:22.135Z,19.85
2022-12-12T22:56:48.985Z,18.40
2022-12-12T22:59:15.888Z,22.48
2022-12-12T23:01:43.263Z,22.38
2022-12-12T23:04:13.569Z,21.23
2022-12-12T23:06:41.374Z,22.75
2022-12-12T23:09:14.873Z,23.67
2022-12-12T23:11:42.553Z,22.70
2022-12-12T23:14:15.412Z,22.95
2022-12-12T23:16:43.114Z,24.98
2022-12-12T23:19:11.113Z,24.17
2022-12-12T23:21:38.272Z,21.35
2022-12-12T23:24:06.922Z,22.13
2022-12-12T23:26:36.533Z,22.08
2022-12-12T23:29:08.053Z,22.55
2022-12-12T23:31:37.681Z,23.50
2022-12-12T23:34:09.698Z,23.80
2022-12-12T23:36:36.682Z,27.40
2022-12-12T23:39:07.883Z,26.73
2022-12-12T23:41:36.541Z,31.30
2022-12-12T23:44:04.809Z,33.30
2022-12-12T23:46:32.315Z,26.73
2022-12-12T23:49:26.603Z,31.33
2022-12-12T23:51:59.269Z,30.20
2022-12-12T23:54:35.182Z,31.00
2022-12-12T23:57:03.152Z,27.65
2022-12-12T23:59:30.673Z,28.27
